sensor_id;sensor_type;location;lat;lon;timestamp;pressure;altitude;pressure_sealevel;temperature;humidity
49473;BME280;73594;50.944;6.950;2023-12-14T00:01:11;100171.00;;;7.57;100.00
49473;BME280;73594;50.944;6.950;2023-12-14T00:03:41;100179.63;;;7.59;100.00
49473;BME280;73594;50.944;6.950;2023-12-14T00:06:08;100191.44;;;7.58;100.00
49473;BME280;73594;50.944;6.950;2023-12-14T00:08:33;100191.19;;;7.60;100.00
49473;BME280;73594;50.944;6.950;2023-12-14T00:11:06;100188.50;;;7.60;100.00
49473;BME280;73594;50.944;6.950;2023-12-14T00:13:33;100199.50;;;7.58;100.00
49473;BME280;73594;50.944;6.950;2023-12-14T00:15:59;100204.09;;;7.58;100.00
49473;BME280;73594;50.944;6.950;2023-12-14T00:18:24;100201.13;;;7.59;100.00
49473;BME280;73594;50.944;6.950;2023-12-14T00:20:50;100209.47;;;7.58;100.00
49473;BME280;73594;50.944;6.950;2023-12-14T00:23:15;100207.03;;;7.56;100.00
49473;BME280;73594;50.944;6.950;2023-12-14T00:25:42;100206.78;;;7.58;100.00
49473;BME280;73594;50.944;6.950;2023-12-14T00:28:07;100216.97;;;7.56;100.00
49473;BME280;73594;50.944;6.950;2023-12-14T00:30:33;100221.78;;;7.53;100.00
49473;BME280;73594;50.944;6.950;2023-12-14T00:32:58;100218.28;;;7.53;100.00
49473;BME280;73594;50.944;6.950;2023-12-14T00:35:24;100229.59;;;7.55;100.00
49473;BME280;73594;50.944;6.950;2023-12-14T00:37:49;100235.22;;;7.53;100.00
49473;BME280;73594;50.944;6.950;2023-12-14T00:40:14;100236.53;;;7.51;100.00
49473;BME280;73594;50.944;6.950;2023-12-14T00:42:40;100240.28;;;7.50;100.00
49473;BME280;73594;50.944;6.950;2023-12-14T00:45:05;100230.53;;;7.44;100.00
49473;BME280;73594;50.944;6.950;2023-12-14T00:47:31;100240.22;;;7.45;100.00
49473;BME280;73594;50.944;6.950;2023-12-14T00:49:56;100235.91;;;7.44;100.00
49473;BME280;73594;50.944;6.950;2023-12-14T00:52:21;100249.13;;;7.45;100.00
49473;BME280;73594;50.944;6.950;2023-12-14T00:54:47;100252.63;;;7.46;100.00
49473;BME280;73594;50.944;6.950;2023-12-14T00:57:12;100268.50;;;7.47;100.00
49473;BME280;73594;50.944;6.950;2023-12-14T00:59:38;100272.81;;;7.48;100.00
49473;BME280;73594;50.944;6.950;2023-12-14T01:02:05;100272.25;;;7.46;100.00
49473;BME280;73594;50.944;6.950;2023-12-14T01:04:30;100274.38;;;7.44;100.00
49473;BME280;73594;50.944;6.950;2023-12-14T01:06:56;100278.69;;;7.45;100.00
49473;BME280;73594;50.944;6.950;2023-12-14T01:09:22;100288.63;;;7.45;100.00
49473;BME280;73594;50.944;6.950;2023-12-14T01:11:47;100292.03;;;7.40;100.00
49473;BME280;73594;50.944;6.950;2023-12-14T01:14:12;100289.34;;;7.40;100.00
49473;BME280;73594;50.944;6.950;2023-12-14T01:16:38;100303.03;;;7.39;100.00
49473;BME280;73594;50.944;6.950;2023-12-14T01:19:03;100301.66;;;7.36;100.00
49473;BME280;73594;50.944;6.950;2023-12-14T01:21:31;100309.47;;;7.38;100.00
49473;BME280;73594;50.944;6.950;2023-12-14T01:23:56;100306.78;;;7.38;100.00
49473;BME280;73594;50.944;6.950;2023-12-14T01:26:22;100322.59;;;7.34;100.00
49473;BME280;73594;50.944;6.950;2023-12-14T01:28:47;100322.59;;;7.34;100.00
49473;BME280;73594;50.944;6.950;2023-12-14T01:31:12;100327.66;;;7.31;100.00
49473;BME280;73594;50.944;6.950;2023-12-14T01:33:38;100326.59;;;7.32;100.00
49473;BME280;73594;50.944;6.950;2023-12-14T01:36:03;100328.78;;;7.35;100.00
49473;BME280;73594;50.944;6.950;2023-12-14T01:38:29;100338.72;;;7.34;100.00
49473;BME280;73594;50.944;6.950;2023-12-14T01:40:55;100336.03;;;7.34;100.00
49473;BME280;73594;50.944;6.950;2023-12-14T01:43:21;100334.41;;;7.33;100.00
49473;BME280;73594;50.944;6.950;2023-12-14T01:45:46;100342.25;;;7.35;100.00
49473;BME280;73594;50.944;6.950;2023-12-14T01:48:14;100345.75;;;7.35;100.00
49473;BME280;73594;50.944;6.950;2023-12-14T01:50:39;100344.13;;;7.34;100.00
49473;BME280;73594;50.944;6.950;2023-12-14T01:53:04;100352.75;;;7.36;100.00
49473;BME280;73594;50.944;6.950;2023-12-14T01:55:29;100366.75;;;7.38;100.00
49473;BME280;73594;50.944;6.950;2023-12-14T01:57:55;100372.13;;;7.38;100.00
49473;BME280;73594;50.944;6.950;2023-12-14T02:00:33;100380.22;;;7.38;100.00
49473;BME280;73594;50.944;6.950;2023-12-14T02:03:00;100385.81;;;7.37;100.00
49473;BME280;73594;50.944;6.950;2023-12-14T02:05:25;100385.25;;;7.35;100.00
49473;BME280;73594;50.944;6.950;2023-12-14T02:07:51;100385.81;;;7.37;100.00
49473;BME280;73594;50.944;6.950;2023-12-14T02:10:16;100397.41;;;7.37;100.00
49473;BME280;73594;50.944;6.950;2023-12-14T02:12:42;100390.38;;;7.36;100.00
49473;BME280;73594;50.944;6.950;2023-12-14T02:15:07;100401.97;;;7.37;100.00
49473;BME280;73594;50.944;6.950;2023-12-14T02:17:34;100403.03;;;7.36;100.00
49473;BME280;73594;50.944;6.950;2023-12-14T02:19:59;100406.53;;;7.36;100.00
49473;BME280;73594;50.944;6.950;2023-12-14T02:22:26;100417.59;;;7.40;100.00
49473;BME280;73594;50.944;6.950;2023-12-14T02:24:51;100420.06;;;7.41;100.00
49473;BME280;73594;50.944;6.950;2023-12-14T02:27:16;100420.88;;;7.42;100.00
49473;BME280;73594;50.944;6.950;2023-12-14T02:29:42;100425.44;;;7.41;100.00
49473;BME280;73594;50.944;6.950;2023-12-14T02:32:07;100431.88;;;7.40;100.00
49473;BME280;73594;50.944;6.950;2023-12-14T02:34:33;100432.44;;;7.42;100.00
49473;BME280;73594;50.944;6.950;2023-12-14T02:36:58;100440.28;;;7.44;100.00
49473;BME280;73594;50.944;6.950;2023-12-14T02:39:23;100453.00;;;7.48;100.00
49473;BME280;73594;50.944;6.950;2023-12-14T02:41:49;100448.94;;;7.46;100.00
49473;BME280;73594;50.944;6.950;2023-12-14T02:44:14;100459.13;;;7.44;100.00
49473;BME280;73594;50.944;6.950;2023-12-14T02:46:39;100457.94;;;7.40;100.00
49473;BME280;73594;50.944;6.950;2023-12-14T02:49:05;100460.63;;;7.40;100.00
49473;BME280;73594;50.944;6.950;2023-12-14T02:51:30;100469.75;;;7.39;100.00
49473;BME280;73594;50.944;6.950;2023-12-14T02:53:56;100468.84;;;7.33;100.00
49473;BME280;73594;50.944;6.950;2023-12-14T02:56:22;100476.03;;;7.28;100.00
49473;BME280;73594;50.944;6.950;2023-12-14T02:58:47;100480.09;;;7.30;100.00
49473;BME280;73594;50.944;6.950;2023-12-14T03:01:18;100471.47;;;7.28;100.00
49473;BME280;73594;50.944;6.950;2023-12-14T03:03:45;100492.38;;;7.26;100.00
49473;BME280;73594;50.944;6.950;2023-12-14T03:06:11;100488.78;;;7.20;100.00
49473;BME280;73594;50.944;6.950;2023-12-14T03:08:36;100495.47;;;7.18;100.00
49473;BME280;73594;50.944;6.950;2023-12-14T03:11:02;100487.41;;;7.18;100.00
49473;BME280;73594;50.944;6.950;2023-12-14T03:13:27;100498.22;;;7.06;100.00
49473;BME280;73594;50.944;6.950;2023-12-14T03:15:53;100508.03;;;7.01;100.00
49473;BME280;73594;50.944;6.950;2023-12-14T03:18:19;100506.78;;;6.92;100.00
49473;BME280;73594;50.944;6.950;2023-12-14T03:20:44;100513.34;;;6.84;100.00
49473;BME280;73594;50.944;6.950;2023-12-14T03:23:09;100510.88;;;6.82;100.00
49473;BME280;73594;50.944;6.950;2023-12-14T03:25:35;100518.84;;;6.77;100.00
49473;BME280;73594;50.944;6.950;2023-12-14T03:28:01;100526.09;;;6.77;100.00
49473;BME280;73594;50.944;6.950;2023-12-14T03:30:26;100516.53;;;6.69;100.00
49473;BME280;73594;50.944;6.950;2023-12-14T03:32:52;100523.75;;;6.69;100.00
49473;BME280;73594;50.944;6.950;2023-12-14T03:35:17;100529.97;;;6.69;100.00
49473;BME280;73594;50.944;6.950;2023-12-14T03:37:43;100537.19;;;6.69;100.00
49473;BME280;73594;50.944;6.950;2023-12-14T03:40:08;100539.19;;;6.62;100.00
49473;BME280;73594;50.944;6.950;2023-12-14T03:42:34;100544.31;;;6.63;100.00
49473;BME280;73594;50.944;6.950;2023-12-14T03:45:00;100551.22;;;6.59;100.00
49473;BME280;73594;50.944;6.950;2023-12-14T03:47:25;100562.66;;;6.54;100.00
49473;BME280;73594;50.944;6.950;2023-12-14T03:49:50;100564.19;;;6.50;100.00
49473;BME280;73594;50.944;6.950;2023-12-14T03:52:16;100563.00;;;6.46;100.00
49473;BME280;73594;50.944;6.950;2023-12-14T03:54:41;100578.53;;;6.44;100.00
49473;BME280;73594;50.944;6.950;2023-12-14T03:57:07;100577.63;;;6.39;100.00
49473;BME280;73594;50.944;6.950;2023-12-14T03:59:39;100580.28;;;6.39;100.00
49473;BME280;73594;50.944;6.950;2023-12-14T04:02:04;100595.94;;;6.42;100.00
49473;BME280;73594;50.944;6.950;2023-12-14T04:04:29;100598.28;;;6.38;100.00
49473;BME280;73594;50.944;6.950;2023-12-14T04:06:55;100602.81;;;6.38;100.00
49473;BME280;73594;50.944;6.950;2023-12-14T04:09:21;100609.47;;;6.35;100.00
49473;BME280;73594;50.944;6.950;2023-12-14T04:11:46;100611.66;;;6.26;100.00
49473;BME280;73594;50.944;6.950;2023-12-14T04:14:11;100613.19;;;6.22;100.00
49473;BME280;73594;50.944;6.950;2023-12-14T04:16:37;100622.88;;;6.23;100.00
49473;BME280;73594;50.944;6.950;2023-12-14T04:19:02;100625.31;;;6.25;100.00
49473;BME280;73594;50.944;6.950;2023-12-14T04:21:28;100635.22;;;6.24;100.00
49473;BME280;73594;50.944;6.950;2023-12-14T04:23:53;100630.09;;;6.23;100.00
49473;BME280;73594;50.944;6.950;2023-12-14T04:26:18;100637.69;;;6.26;100.00
49473;BME280;73594;50.944;6.950;2023-12-14T04:28:44;100637.09;;;6.24;100.00
49473;BME280;73594;50.944;6.950;2023-12-14T04:31:11;100646.56;;;6.26;100.00
49473;BME280;73594;50.944;6.950;2023-12-14T04:33:36;100640.13;;;6.27;100.00
49473;BME280;73594;50.944;6.950;2023-12-14T04:36:02;100651.47;;;6.30;100.00
49473;BME280;73594;50.944;6.950;2023-12-14T04:38:28;100657.75;;;6.23;100.00
49473;BME280;73594;50.944;6.950;2023-12-14T04:40:54;100657.16;;;6.21;100.00
49473;BME280;73594;50.944;6.950;2023-12-14T04:43:20;100663.22;;;6.17;100.00
49473;BME280;73594;50.944;6.950;2023-12-14T04:45:45;100659.38;;;6.13;100.00
49473;BME280;73594;50.944;6.950;2023-12-14T04:48:10;100663.78;;;6.07;100.00
49473;BME280;73594;50.944;6.950;2023-12-14T04:50:36;100660.75;;;6.04;100.00
49473;BME280;73594;50.944;6.950;2023-12-14T04:53:01;100676.50;;;6.00;100.00
49473;BME280;73594;50.944;6.950;2023-12-14T04:55:27;100676.50;;;6.00;100.00
49473;BME280;73594;50.944;6.950;2023-12-14T04:57:52;100691.41;;;5.96;100.00
49473;BME280;73594;50.944;6.950;2023-12-14T05:00:17;100697.59;;;5.97;100.00
49473;BME280;73594;50.944;6.950;2023-12-14T05:02:46;100705.66;;;5.97;100.00
49473;BME280;73594;50.944;6.950;2023-12-14T05:05:13;100705.25;;;5.93;100.00
49473;BME280;73594;50.944;6.950;2023-12-14T05:07:38;100709.81;;;5.92;100.00
49473;BME280;73594;50.944;6.950;2023-12-14T05:10:04;100709.56;;;5.94;100.00
49473;BME280;73594;50.944;6.950;2023-12-14T05:12:30;100711.91;;;5.90;100.00
49473;BME280;73594;50.944;6.950;2023-12-14T05:14:57;100709.81;;;5.92;100.00
49473;BME280;73594;50.944;6.950;2023-12-14T05:17:22;100724.03;;;5.93;100.00
49473;BME280;73594;50.944;6.950;2023-12-14T05:19:47;100728.16;;;5.95;100.00
49473;BME280;73594;50.944;6.950;2023-12-14T05:22:13;100728.00;;;5.90;100.00
49473;BME280;73594;50.944;6.950;2023-12-14T05:24:38;100739.53;;;5.91;100.00
49473;BME280;73594;50.944;6.950;2023-12-14T05:27:04;100733.56;;;5.89;100.00
49473;BME280;73594;50.944;6.950;2023-12-14T05:29:29;100738.09;;;5.88;100.00
49473;BME280;73594;50.944;6.950;2023-12-14T05:31:55;100744.50;;;5.87;100.00
49473;BME280;73594;50.944;6.950;2023-12-14T05:34:20;100736.31;;;5.82;100.00
49473;BME280;73594;50.944;6.950;2023-12-14T05:36:45;100746.22;;;5.82;100.00
49473;BME280;73594;50.944;6.950;2023-12-14T05:39:11;100748.09;;;5.81;100.00
49473;BME280;73594;50.944;6.950;2023-12-14T05:41:42;100754.28;;;5.82;100.00
49473;BME280;73594;50.944;6.950;2023-12-14T05:44:07;100760.22;;;5.84;100.00
49473;BME280;73594;50.944;6.950;2023-12-14T05:46:33;100762.56;;;5.80;100.00
49473;BME280;73594;50.944;6.950;2023-12-14T05:48:58;100769.19;;;5.78;100.00
49473;BME280;73594;50.944;6.950;2023-12-14T05:51:28;100768.38;;;5.77;100.00
49473;BME280;73594;50.944;6.950;2023-12-14T05:53:53;100766.72;;;5.76;100.00
49473;BME280;73594;50.944;6.950;2023-12-14T05:56:19;100772.91;;;5.77;100.00
49473;BME280;73594;50.944;6.950;2023-12-14T05:58:44;100791.00;;;5.81;100.00
49473;BME280;73594;50.944;6.950;2023-12-14T06:01:09;100788.19;;;5.76;100.00
49473;BME280;73594;50.944;6.950;2023-12-14T06:03:35;100790.41;;;5.79;100.00
49473;BME280;73594;50.944;6.950;2023-12-14T06:06:00;100800.56;;;5.77;100.00
49473;BME280;73594;50.944;6.950;2023-12-14T06:08:25;100801.38;;;5.78;100.00
49473;BME280;73594;50.944;6.950;2023-12-14T06:10:51;100805.56;;;5.74;100.00
49473;BME280;73594;50.944;6.950;2023-12-14T06:13:16;100816.88;;;5.76;100.00
49473;BME280;73594;50.944;6.950;2023-12-14T06:15:41;100824.31;;;5.74;100.00
49473;BME280;73594;50.944;6.950;2023-12-14T06:18:07;100837.13;;;5.72;100.00
49473;BME280;73594;50.944;6.950;2023-12-14T06:20:32;100833.13;;;5.62;100.00
49473;BME280;73594;50.944;6.950;2023-12-14T06:22:57;100835.19;;;5.60;100.00
49473;BME280;73594;50.944;6.950;2023-12-14T06:25:23;100848.41;;;5.55;100.00
49473;BME280;73594;50.944;6.950;2023-12-14T06:27:48;100849.00;;;5.57;100.00
49473;BME280;73594;50.944;6.950;2023-12-14T06:30:14;100858.91;;;5.57;100.00
49473;BME280;73594;50.944;6.950;2023-12-14T06:32:40;100868.41;;;5.59;100.00
49473;BME280;73594;50.944;6.950;2023-12-14T06:35:05;100864.09;;;5.58;100.00
49473;BME280;73594;50.944;6.950;2023-12-14T06:37:31;100877.50;;;5.58;100.00
49473;BME280;73594;50.944;6.950;2023-12-14T06:39:56;100876.47;;;5.59;100.00
49473;BME280;73594;50.944;6.950;2023-12-14T06:42:22;100884.50;;;5.59;100.00
49473;BME280;73594;50.944;6.950;2023-12-14T06:44:47;100890.91;;;5.58;100.00
49473;BME280;73594;50.944;6.950;2023-12-14T06:47:13;100901.00;;;5.56;100.00
49473;BME280;73594;50.944;6.950;2023-12-14T06:49:39;100899.97;;;5.57;100.00
49473;BME280;73594;50.944;6.950;2023-12-14T06:52:06;100901.44;;;5.53;100.00
49473;BME280;73594;50.944;6.950;2023-12-14T06:54:32;100915.44;;;5.55;100.00
49473;BME280;73594;50.944;6.950;2023-12-14T06:57:01;100917.09;;;5.56;100.00
49473;BME280;73594;50.944;6.950;2023-12-14T06:59:26;100921.22;;;5.59;100.00
49473;BME280;73594;50.944;6.950;2023-12-14T07:01:51;100921.84;;;5.54;100.00
49473;BME280;73594;50.944;6.950;2023-12-14T07:04:17;100929.91;;;5.54;100.00
49473;BME280;73594;50.944;6.950;2023-12-14T07:06:50;100942.28;;;5.55;100.00
49473;BME280;73594;50.944;6.950;2023-12-14T07:09:16;100949.72;;;5.53;100.00
49473;BME280;73594;50.944;6.950;2023-12-14T07:11:41;100952.19;;;5.55;100.00
49473;BME280;73594;50.944;6.950;2023-12-14T07:14:07;100958.19;;;5.50;100.00
49473;BME280;73594;50.944;6.950;2023-12-14T07:16:32;100960.88;;;5.50;100.00
49473;BME280;73594;50.944;6.950;2023-12-14T07:18:57;100963.34;;;5.52;100.00
49473;BME280;73594;50.944;6.950;2023-12-14T07:21:23;100957.16;;;5.51;100.00
49473;BME280;73594;50.944;6.950;2023-12-14T07:23:48;100964.16;;;5.52;100.00
49473;BME280;73594;50.944;6.950;2023-12-14T07:26:13;100976.53;;;5.53;100.00
49473;BME280;73594;50.944;6.950;2023-12-14T07:28:39;100975.69;;;5.53;100.00
49473;BME280;73594;50.944;6.950;2023-12-14T07:31:04;100988.50;;;5.51;100.00
49473;BME280;73594;50.944;6.950;2023-12-14T07:33:29;100984.41;;;5.48;100.00
49473;BME280;73594;50.944;6.950;2023-12-14T07:35:55;100989.59;;;5.43;100.00
49473;BME280;73594;50.944;6.950;2023-12-14T07:38:20;100992.72;;;5.40;100.00
49473;BME280;73594;50.944;6.950;2023-12-14T07:40:46;100991.91;;;5.40;100.00
49473;BME280;73594;50.944;6.950;2023-12-14T07:43:12;101006.16;;;5.33;100.00
49473;BME280;73594;50.944;6.950;2023-12-14T07:45:37;101006.38;;;5.32;100.00
49473;BME280;73594;50.944;6.950;2023-12-14T07:48:03;101014.84;;;5.29;100.00
49473;BME280;73594;50.944;6.950;2023-12-14T07:50:29;101029.28;;;5.28;100.00
49473;BME280;73594;50.944;6.950;2023-12-14T07:52:55;101028.69;;;5.26;100.00
49473;BME280;73594;50.944;6.950;2023-12-14T07:55:20;101030.56;;;5.25;100.00
49473;BME280;73594;50.944;6.950;2023-12-14T07:57:46;101037.97;;;5.23;100.00
49473;BME280;73594;50.944;6.950;2023-12-14T08:00:12;101049.13;;;5.20;100.00
49473;BME280;73594;50.944;6.950;2023-12-14T08:02:38;101051.19;;;5.18;100.00
49473;BME280;73594;50.944;6.950;2023-12-14T08:05:04;101054.06;;;5.17;100.00
49473;BME280;73594;50.944;6.950;2023-12-14T08:07:33;101053.47;;;5.15;100.00
49473;BME280;73594;50.944;6.950;2023-12-14T08:09:58;101069.53;;;5.15;100.00
49473;BME280;73594;50.944;6.950;2023-12-14T08:12:24;101074.91;;;5.15;100.00
49473;BME280;73594;50.944;6.950;2023-12-14T08:14:50;101079.44;;;5.14;100.00
49473;BME280;73594;50.944;6.950;2023-12-14T08:17:15;101077.78;;;5.13;100.00
49473;BME280;73594;50.944;6.950;2023-12-14T08:19:41;101082.94;;;5.15;100.00
49473;BME280;73594;50.944;6.950;2023-12-14T08:22:08;101084.59;;;5.16;100.00
49473;BME280;73594;50.944;6.950;2023-12-14T08:24:39;101091.81;;;5.09;100.00
49473;BME280;73594;50.944;6.950;2023-12-14T08:27:05;101092.66;;;5.09;100.00
49473;BME280;73594;50.944;6.950;2023-12-14T08:29:30;101094.72;;;5.07;100.00
49473;BME280;73594;50.944;6.950;2023-12-14T08:31:55;101099.66;;;5.10;100.00
49473;BME280;73594;50.944;6.950;2023-12-14T08:34:27;101113.25;;;5.09;100.00
49473;BME280;73594;50.944;6.950;2023-12-14T08:36:53;101118.63;;;5.09;100.00
49473;BME280;73594;50.944;6.950;2023-12-14T08:39:18;101116.97;;;5.08;100.00
49473;BME280;73594;50.944;6.950;2023-12-14T08:41:45;101122.34;;;5.08;100.00
49473;BME280;73594;50.944;6.950;2023-12-14T08:44:12;101127.50;;;5.09;100.00
49473;BME280;73594;50.944;6.950;2023-12-14T08:46:41;101138.00;;;5.11;100.00
49473;BME280;73594;50.944;6.950;2023-12-14T08:49:07;101138.00;;;5.11;100.00
49473;BME280;73594;50.944;6.950;2023-12-14T08:51:32;101145.84;;;5.06;100.00
49473;BME280;73594;50.944;6.950;2023-12-14T08:53:59;101151.63;;;5.02;100.00
49473;BME280;73594;50.944;6.950;2023-12-14T08:56:24;101154.91;;;5.05;100.00
49473;BME280;73594;50.944;6.950;2023-12-14T08:58:49;101158.22;;;5.07;100.00
49473;BME280;73594;50.944;6.950;2023-12-14T09:01:23;101164.00;;;5.03;100.00
49473;BME280;73594;50.944;6.950;2023-12-14T09:03:49;101178.22;;;5.04;100.00
49473;BME280;73594;50.944;6.950;2023-12-14T09:06:16;101171.00;;;5.05;100.00
49473;BME280;73594;50.944;6.950;2023-12-14T09:08:41;101173.06;;;5.02;100.00
49473;BME280;73594;50.944;6.950;2023-12-14T09:11:07;101181.94;;;4.96;100.00
49473;BME280;73594;50.944;6.950;2023-12-14T09:13:32;101188.53;;;5.00;100.00
49473;BME280;73594;50.944;6.950;2023-12-14T09:15:58;101201.72;;;5.02;100.00
49473;BME280;73594;50.944;6.950;2023-12-14T09:18:23;101202.94;;;4.99;100.00
49473;BME280;73594;50.944;6.950;2023-12-14T09:20:49;101209.56;;;4.97;100.00
49473;BME280;73594;50.944;6.950;2023-12-14T09:23:15;101212.44;;;4.95;100.00
49473;BME280;73594;50.944;6.950;2023-12-14T09:25:41;101211.81;;;4.93;100.00
49473;BME280;73594;50.944;6.950;2023-12-14T09:28:06;101217.59;;;4.90;100.00
49473;BME280;73594;50.944;6.950;2023-12-14T09:30:32;101224.59;;;4.91;100.00
49473;BME280;73594;50.944;6.950;2023-12-14T09:32:58;101228.53;;;4.89;100.00
49473;BME280;73594;50.944;6.950;2023-12-14T09:35:23;101234.50;;;4.84;100.00
49473;BME280;73594;50.944;6.950;2023-12-14T09:37:49;101234.09;;;4.87;100.00
49473;BME280;73594;50.944;6.950;2023-12-14T09:40:15;101243.56;;;4.83;100.00
49473;BME280;73594;50.944;6.950;2023-12-14T09:42:42;101246.44;;;4.82;100.00
49473;BME280;73594;50.944;6.950;2023-12-14T09:45:08;101248.94;;;4.83;100.00
49473;BME280;73594;50.944;6.950;2023-12-14T09:47:38;101251.38;;;4.78;100.00
49473;BME280;73594;50.944;6.950;2023-12-14T09:50:04;101248.69;;;4.78;100.00
49473;BME280;73594;50.944;6.950;2023-12-14T09:52:30;101248.09;;;4.76;100.00
49473;BME280;73594;50.944;6.950;2023-12-14T09:54:56;101249.94;;;4.76;100.00
49473;BME280;73594;50.944;6.950;2023-12-14T09:57:21;101253.84;;;4.80;100.00
49473;BME280;73594;50.944;6.950;2023-12-14T09:59:55;101261.69;;;4.81;100.00
49473;BME280;73594;50.944;6.950;2023-12-14T10:02:25;101268.69;;;4.82;100.00
49473;BME280;73594;50.944;6.950;2023-12-14T10:04:51;101267.03;;;4.81;100.00
49473;BME280;73594;50.944;6.950;2023-12-14T10:07:18;101274.44;;;4.79;100.00
49473;BME280;73594;50.944;6.950;2023-12-14T10:09:46;101265.38;;;4.80;100.00
49473;BME280;73594;50.944;6.950;2023-12-14T10:12:11;101275.47;;;4.71;100.00
49473;BME280;73594;50.944;6.950;2023-12-14T10:14:37;101275.28;;;4.73;100.00
49473;BME280;73594;50.944;6.950;2023-12-14T10:17:18;101283.09;;;4.68;100.00
49473;BME280;73594;50.944;6.950;2023-12-14T10:19:44;101289.50;;;4.67;100.00
49473;BME280;73594;50.944;6.950;2023-12-14T10:22:13;101288.88;;;4.65;100.00
49473;BME280;73594;50.944;6.950;2023-12-14T10:24:43;101290.31;;;4.61;100.00
49473;BME280;73594;50.944;6.950;2023-12-14T10:27:10;101293.19;;;4.66;100.00
49473;BME280;73594;50.944;6.950;2023-12-14T10:29:39;101302.88;;;4.67;100.00
49473;BME280;73594;50.944;6.950;2023-12-14T10:32:05;101307.00;;;4.69;100.00
49473;BME280;73594;50.944;6.950;2023-12-14T10:34:51;101315.66;;;4.71;100.00
49473;BME280;73594;50.944;6.950;2023-12-14T10:37:17;101320.81;;;4.73;100.00
49473;BME280;73594;50.944;6.950;2023-12-14T10:39:43;101327.19;;;4.72;100.00
49473;BME280;73594;50.944;6.950;2023-12-14T10:42:10;101337.06;;;4.65;100.00
49473;BME280;73594;50.944;6.950;2023-12-14T10:44:36;101343.03;;;4.67;100.00
49473;BME280;73594;50.944;6.950;2023-12-14T10:47:03;101346.13;;;4.64;100.00
49473;BME280;73594;50.944;6.950;2023-12-14T10:49:34;101361.78;;;4.67;100.00
49473;BME280;73594;50.944;6.950;2023-12-14T10:52:01;101367.56;;;4.70;100.00
49473;BME280;73594;50.944;6.950;2023-12-14T10:54:30;101359.94;;;4.67;100.00
49473;BME280;73594;50.944;6.950;2023-12-14T10:56:57;101370.44;;;4.69;100.00
49473;BME280;73594;50.944;6.950;2023-12-14T10:59:24;101363.44;;;4.68;100.00
49473;BME280;73594;50.944;6.950;2023-12-14T11:01:53;101372.28;;;4.68;100.00
49473;BME280;73594;50.944;6.950;2023-12-14T11:04:21;101360.97;;;4.66;100.00
49473;BME280;73594;50.944;6.950;2023-12-14T11:06:46;101362.00;;;4.65;100.00
49473;BME280;73594;50.944;6.950;2023-12-14T11:09:17;101356.03;;;4.70;100.00
49473;BME280;73594;50.944;6.950;2023-12-14T11:14:20;101367.97;;;4.74;100.00
49473;BME280;73594;50.944;6.950;2023-12-14T11:16:50;101369.84;;;4.74;100.00
49473;BME280;73594;50.944;6.950;2023-12-14T11:21:48;101384.25;;;4.79;100.00
49473;BME280;73594;50.944;6.950;2023-12-14T11:24:13;101389.81;;;4.78;100.00
49473;BME280;73594;50.944;6.950;2023-12-14T11:26:39;101387.97;;;4.78;100.00
49473;BME280;73594;50.944;6.950;2023-12-14T11:29:06;101392.69;;;4.76;100.00
49473;BME280;73594;50.944;6.950;2023-12-14T11:31:35;101393.31;;;4.78;100.00
49473;BME280;73594;50.944;6.950;2023-12-14T11:34:01;101403.63;;;4.75;100.00
49473;BME280;73594;50.944;6.950;2023-12-14T11:36:28;101401.97;;;4.74;100.00
49473;BME280;73594;50.944;6.950;2023-12-14T11:38:54;101404.44;;;4.75;100.00
49473;BME280;73594;50.944;6.950;2023-12-14T11:41:23;101418.25;;;4.72;100.00
49473;BME280;73594;50.944;6.950;2023-12-14T11:43:52;101416.38;;;4.72;100.00
49473;BME280;73594;50.944;6.950;2023-12-14T11:46:18;101409.81;;;4.75;100.00
49473;BME280;73594;50.944;6.950;2023-12-14T11:48:47;101420.94;;;4.79;100.00
49473;BME280;73594;50.944;6.950;2023-12-14T11:51:15;101420.72;;;4.80;100.00
49473;BME280;73594;50.944;6.950;2023-12-14T11:53:44;101419.09;;;4.79;100.00
49473;BME280;73594;50.944;6.950;2023-12-14T11:56:12;101424.84;;;4.76;100.00
49473;BME280;73594;50.944;6.950;2023-12-14T11:58:43;101424.44;;;4.79;100.00
49473;BME280;73594;50.944;6.950;2023-12-14T12:01:19;101428.56;;;4.82;100.00
49473;BME280;73594;50.944;6.950;2023-12-14T12:03:46;101432.72;;;4.84;100.00
49473;BME280;73594;50.944;6.950;2023-12-14T12:06:26;101433.53;;;4.85;100.00
49473;BME280;73594;50.944;6.950;2023-12-14T12:08:56;101437.84;;;4.79;100.00
49473;BME280;73594;50.944;6.950;2023-12-14T12:11:23;101428.16;;;4.78;100.00
49473;BME280;73594;50.944;6.950;2023-12-14T12:13:53;101428.56;;;4.82;100.00
49473;BME280;73594;50.944;6.950;2023-12-14T12:16:22;101431.06;;;4.83;100.00
49473;BME280;73594;50.944;6.950;2023-12-14T12:18:51;101426.34;;;4.85;100.00
49473;BME280;73594;50.944;6.950;2023-12-14T12:21:16;101434.16;;;4.87;100.00
49473;BME280;73594;50.944;6.950;2023-12-14T12:23:42;101432.53;;;4.86;100.00
49473;BME280;73594;50.944;6.950;2023-12-14T12:26:07;101426.75;;;4.89;100.00
49473;BME280;73594;50.944;6.950;2023-12-14T12:28:33;101426.56;;;4.90;100.00
49473;BME280;73594;50.944;6.950;2023-12-14T12:30:58;101428.81;;;4.87;100.00
49473;BME280;73594;50.944;6.950;2023-12-14T12:33:27;101437.44;;;4.82;100.00
49473;BME280;73594;50.944;6.950;2023-12-14T12:35:53;101438.09;;;4.84;100.00
49473;BME280;73594;50.944;6.950;2023-12-14T12:38:19;101437.88;;;4.86;100.00
49473;BME280;73594;50.944;6.950;2023-12-14T12:40:45;101438.09;;;4.91;100.00
49473;BME280;73594;50.944;6.950;2023-12-14T12:43:11;101443.44;;;4.91;100.00
49473;BME280;73594;50.944;6.950;2023-12-14T12:45:38;101444.47;;;4.90;100.00
49473;BME280;73594;50.944;6.950;2023-12-14T12:48:05;101445.94;;;4.92;100.00
49473;BME280;73594;50.944;6.950;2023-12-14T12:50:32;101455.63;;;4.93;100.00